sensor_id;sensor_type;location;lat;lon;timestamp;noise_LAeq;noise_LA_min;noise_LA_max;noise_LA01;noise_LA95
37279;Laerm;7458;49.002;8.472;2023-06-24T00:02:14;45.69;36.45;62.23;;
37279;Laerm;7458;49.002;8.472;2023-06-24T00:04:40;40.69;35.66;47.00;;
37279;Laerm;7458;49.002;8.472;2023-06-24T00:07:06;40.67;35.94;48.31;;
37279;Laerm;7458;49.002;8.472;2023-06-24T00:09:32;40.27;33.44;44.65;;
37279;Laerm;7458;49.002;8.472;2023-06-24T00:11:59;41.11;37.32;44.97;;
37279;Laerm;7458;49.002;8.472;2023-06-24T00:14:26;40.44;35.36;45.36;;
37279;Laerm;7458;49.002;8.472;2023-06-24T00:16:56;40.30;35.66;45.20;;
37279;Laerm;7458;49.002;8.472;2023-06-24T00:19:26;40.79;36.69;45.80;;
37279;Laerm;7458;49.002;8.472;2023-06-24T00:21:54;40.80;35.36;47.38;;
37279;Laerm;7458;49.002;8.472;2023-06-24T00:24:23;40.53;34.69;46.78;;
37279;Laerm;7458;49.002;8.472;2023-06-24T00:26:52;45.60;36.20;62.13;;
37279;Laerm;7458;49.002;8.472;2023-06-24T00:29:18;40.45;35.59;46.69;;
37279;Laerm;7458;49.002;8.472;2023-06-24T00:31:44;41.07;35.59;50.08;;
37279;Laerm;7458;49.002;8.472;2023-06-24T00:34:10;40.21;35.36;44.47;;
37279;Laerm;7458;49.002;8.472;2023-06-24T00:36:36;40.08;35.66;43.81;;
37279;Laerm;7458;49.002;8.472;2023-06-24T00:39:03;40.93;35.94;48.32;;
37279;Laerm;7458;49.002;8.472;2023-06-24T00:41:30;40.33;35.66;48.51;;
37279;Laerm;7458;49.002;8.472;2023-06-24T00:43:57;41.75;36.91;62.24;;
37279;Laerm;7458;49.002;8.472;2023-06-24T00:46:25;41.57;37.52;59.70;;
37279;Laerm;7458;49.002;8.472;2023-06-24T00:48:58;40.65;36.45;50.27;;
37279;Laerm;7458;49.002;8.472;2023-06-24T00:51:24;42.07;36.91;54.42;;
37279;Laerm;7458;49.002;8.472;2023-06-24T00:53:57;40.74;35.36;50.33;;
37279;Laerm;7458;49.002;8.472;2023-06-24T00:56:30;41.26;36.45;48.52;;
37279;Laerm;7458;49.002;8.472;2023-06-24T00:58:58;48.69;36.20;69.20;;
37279;Laerm;7458;49.002;8.472;2023-06-24T01:01:30;40.98;35.94;49.52;;
37279;Laerm;7458;49.002;8.472;2023-06-24T01:04:00;40.34;35.94;46.64;;
37279;Laerm;7458;49.002;8.472;2023-06-24T01:06:28;40.19;35.36;47.74;;
37279;Laerm;7458;49.002;8.472;2023-06-24T01:08:56;40.47;36.20;44.56;;
37279;Laerm;7458;49.002;8.472;2023-06-24T01:11:23;40.26;35.36;44.27;;
37279;Laerm;7458;49.002;8.472;2023-06-24T01:13:50;41.74;36.69;52.47;;
37279;Laerm;7458;49.002;8.472;2023-06-24T01:22:31;41.68;36.45;47.14;;
37279;Laerm;7458;49.002;8.472;2023-06-24T01:31:19;46.81;38.37;72.77;;
37279;Laerm;7458;49.002;8.472;2023-06-24T01:33:58;43.73;36.91;71.51;;
37279;Laerm;7458;49.002;8.472;2023-06-24T01:36:31;46.95;37.32;71.89;;
37279;Laerm;7458;49.002;8.472;2023-06-24T01:39:03;42.27;38.37;50.04;;
37279;Laerm;7458;49.002;8.472;2023-06-24T01:41:40;41.64;37.12;52.87;;
37279;Laerm;7458;49.002;8.472;2023-06-24T01:44:09;42.17;38.37;50.71;;
37279;Laerm;7458;49.002;8.472;2023-06-24T01:46:41;41.41;38.05;54.17;;
37279;Laerm;7458;49.002;8.472;2023-06-24T01:49:11;42.53;37.88;56.95;;
37279;Laerm;7458;49.002;8.472;2023-06-24T01:51:41;42.09;36.69;54.21;;
37279;Laerm;7458;49.002;8.472;2023-06-24T01:54:15;42.17;38.67;49.87;;
37279;Laerm;7458;49.002;8.472;2023-06-24T01:56:47;41.76;37.70;45.45;;
37279;Laerm;7458;49.002;8.472;2023-06-24T01:59:16;41.84;38.67;46.52;;
37279;Laerm;7458;49.002;8.472;2023-06-24T02:01:44;42.40;39.08;46.05;;
37279;Laerm;7458;49.002;8.472;2023-06-24T02:04:12;42.81;38.95;45.54;;
37279;Laerm;7458;49.002;8.472;2023-06-24T02:06:41;43.03;40.03;49.29;;
37279;Laerm;7458;49.002;8.472;2023-06-24T02:09:10;42.40;39.34;47.02;;
37279;Laerm;7458;49.002;8.472;2023-06-24T02:11:38;42.18;38.67;47.24;;
37279;Laerm;7458;49.002;8.472;2023-06-24T02:14:07;42.44;38.52;50.98;;
37279;Laerm;7458;49.002;8.472;2023-06-24T02:16:36;41.59;37.88;57.11;;
37279;Laerm;7458;49.002;8.472;2023-06-24T02:19:03;41.97;36.20;54.29;;
37279;Laerm;7458;49.002;8.472;2023-06-24T02:21:30;41.52;36.45;51.00;;
37279;Laerm;7458;49.002;8.472;2023-06-24T02:23:57;42.04;38.05;50.88;;
37279;Laerm;7458;49.002;8.472;2023-06-24T02:26:23;43.19;38.02;55.30;;
37279;Laerm;7458;49.002;8.472;2023-06-24T02:28:53;42.61;38.21;56.29;;
37279;Laerm;7458;49.002;8.472;2023-06-24T02:31:19;42.92;38.67;55.21;;
37279;Laerm;7458;49.002;8.472;2023-06-24T02:33:45;44.92;37.32;65.25;;
37279;Laerm;7458;49.002;8.472;2023-06-24T02:36:12;47.81;36.69;64.79;;
37279;Laerm;7458;49.002;8.472;2023-06-24T02:38:38;48.04;38.21;64.45;;
37279;Laerm;7458;49.002;8.472;2023-06-24T02:41:03;47.75;37.32;65.35;;
37279;Laerm;7458;49.002;8.472;2023-06-24T02:43:31;50.28;37.12;64.42;;
37279;Laerm;7458;49.002;8.472;2023-06-24T02:45:59;52.36;37.88;67.70;;
37279;Laerm;7458;49.002;8.472;2023-06-24T02:48:29;49.42;38.37;64.12;;
37279;Laerm;7458;49.002;8.472;2023-06-24T02:50:58;49.01;38.37;67.80;;
37279;Laerm;7458;49.002;8.472;2023-06-24T02:53:24;50.87;38.05;70.78;;
37279;Laerm;7458;49.002;8.472;2023-06-24T02:55:52;43.24;37.70;58.78;;
37279;Laerm;7458;49.002;8.472;2023-06-24T02:58:20;43.44;37.70;62.37;;
37279;Laerm;7458;49.002;8.472;2023-06-24T03:00:46;43.24;37.52;63.36;;
37279;Laerm;7458;49.002;8.472;2023-06-24T03:03:15;42.75;38.02;49.04;;
37279;Laerm;7458;49.002;8.472;2023-06-24T03:05:43;43.06;37.52;50.20;;
37279;Laerm;7458;49.002;8.472;2023-06-24T03:08:10;42.54;38.05;49.16;;
37279;Laerm;7458;49.002;8.472;2023-06-24T03:10:39;43.13;37.70;50.31;;
37279;Laerm;7458;49.002;8.472;2023-06-24T03:13:05;43.06;39.08;55.10;;
37279;Laerm;7458;49.002;8.472;2023-06-24T03:15:31;42.94;38.52;52.29;;
37279;Laerm;7458;49.002;8.472;2023-06-24T03:17:57;44.64;38.52;54.24;;
37279;Laerm;7458;49.002;8.472;2023-06-24T03:20:23;44.43;39.34;54.16;;
37279;Laerm;7458;49.002;8.472;2023-06-24T03:22:49;45.24;38.81;59.71;;
37279;Laerm;7458;49.002;8.472;2023-06-24T03:25:15;45.71;39.46;61.13;;
37279;Laerm;7458;49.002;8.472;2023-06-24T03:27:41;45.12;39.21;56.86;;
37279;Laerm;7458;49.002;8.472;2023-06-24T03:30:07;47.94;39.21;66.79;;
37279;Laerm;7458;49.002;8.472;2023-06-24T03:32:33;45.00;39.08;57.62;;
37279;Laerm;7458;49.002;8.472;2023-06-24T03:35:03;50.84;39.08;70.27;;
37279;Laerm;7458;49.002;8.472;2023-06-24T03:37:29;50.64;40.03;71.40;;
37279;Laerm;7458;49.002;8.472;2023-06-24T03:39:56;46.82;38.37;58.87;;
37279;Laerm;7458;49.002;8.472;2023-06-24T03:42:22;52.58;39.21;72.50;;
37279;Laerm;7458;49.002;8.472;2023-06-24T03:44:49;47.69;38.81;70.46;;
37279;Laerm;7458;49.002;8.472;2023-06-24T03:47:15;47.25;39.35;56.90;;
37279;Laerm;7458;49.002;8.472;2023-06-24T03:49:41;43.56;38.05;53.07;;
37279;Laerm;7458;49.002;8.472;2023-06-24T03:52:07;44.97;38.21;63.78;;
37279;Laerm;7458;49.002;8.472;2023-06-24T03:54:34;45.57;38.52;57.05;;
37279;Laerm;7458;49.002;8.472;2023-06-24T03:57:01;49.35;39.34;66.78;;
37279;Laerm;7458;49.002;8.472;2023-06-24T03:59:27;49.03;39.58;65.49;;
37279;Laerm;7458;49.002;8.472;2023-06-24T04:01:52;45.26;38.81;58.64;;
37279;Laerm;7458;49.002;8.472;2023-06-24T04:04:19;44.15;38.81;56.75;;
37279;Laerm;7458;49.002;8.472;2023-06-24T04:06:44;49.77;38.81;66.36;;
37279;Laerm;7458;49.002;8.472;2023-06-24T04:09:10;48.86;38.95;61.90;;
37279;Laerm;7458;49.002;8.472;2023-06-24T04:11:36;48.44;39.92;62.41;;
37279;Laerm;7458;49.002;8.472;2023-06-24T04:14:02;48.87;38.67;63.06;;
37279;Laerm;7458;49.002;8.472;2023-06-24T04:16:28;44.76;38.21;57.77;;
37279;Laerm;7458;49.002;8.472;2023-06-24T04:18:54;49.48;39.21;63.56;;
37279;Laerm;7458;49.002;8.472;2023-06-24T04:21:19;55.83;39.21;75.90;;
37279;Laerm;7458;49.002;8.472;2023-06-24T04:23:45;48.58;38.37;64.40;;
37279;Laerm;7458;49.002;8.472;2023-06-24T04:26:11;48.05;38.05;65.13;;
37279;Laerm;7458;49.002;8.472;2023-06-24T04:28:37;48.49;38.21;60.14;;
37279;Laerm;7458;49.002;8.472;2023-06-24T04:31:04;47.06;39.08;61.51;;
37279;Laerm;7458;49.002;8.472;2023-06-24T04:33:29;45.15;39.92;58.06;;
37279;Laerm;7458;49.002;8.472;2023-06-24T04:35:55;56.53;39.70;71.54;;
37279;Laerm;7458;49.002;8.472;2023-06-24T04:38:21;46.31;39.46;57.60;;
37279;Laerm;7458;49.002;8.472;2023-06-24T04:40:47;52.34;38.67;66.89;;
37279;Laerm;7458;49.002;8.472;2023-06-24T04:43:13;49.65;38.67;70.58;;
37279;Laerm;7458;49.002;8.472;2023-06-24T04:45:39;52.28;38.95;66.94;;
37279;Laerm;7458;49.002;8.472;2023-06-24T04:48:05;44.22;39.21;56.72;;
37279;Laerm;7458;49.002;8.472;2023-06-24T04:50:31;52.93;39.08;67.51;;
37279;Laerm;7458;49.002;8.472;2023-06-24T04:52:58;49.32;39.46;62.87;;
37279;Laerm;7458;49.002;8.472;2023-06-24T04:55:24;62.16;39.92;81.05;;
37279;Laerm;7458;49.002;8.472;2023-06-24T04:57:50;46.99;39.81;62.18;;
37279;Laerm;7458;49.002;8.472;2023-06-24T05:00:16;54.80;40.13;72.14;;
37279;Laerm;7458;49.002;8.472;2023-06-24T05:02:42;50.67;40.43;66.89;;
37279;Laerm;7458;49.002;8.472;2023-06-24T05:05:08;55.15;40.98;67.91;;
37279;Laerm;7458;49.002;8.472;2023-06-24T05:07:35;49.00;40.23;65.33;;
37279;Laerm;7458;49.002;8.472;2023-06-24T05:10:01;54.60;39.70;71.33;;
37279;Laerm;7458;49.002;8.472;2023-06-24T05:12:27;59.30;39.70;76.32;;
37279;Laerm;7458;49.002;8.472;2023-06-24T05:14:53;49.61;39.81;67.48;;
37279;Laerm;7458;49.002;8.472;2023-06-24T05:17:20;49.33;39.92;66.82;;
37279;Laerm;7458;49.002;8.472;2023-06-24T05:19:46;57.08;38.21;74.69;;
37279;Laerm;7458;49.002;8.472;2023-06-24T05:22:12;60.08;40.43;79.09;;
37279;Laerm;7458;49.002;8.472;2023-06-24T05:24:38;54.96;39.21;71.05;;
37279;Laerm;7458;49.002;8.472;2023-06-24T05:27:07;51.81;38.47;69.25;;
37279;Laerm;7458;49.002;8.472;2023-06-24T05:29:34;53.68;39.11;68.42;;
37279;Laerm;7458;49.002;8.472;2023-06-24T05:32:00;51.59;39.21;67.02;;
37279;Laerm;7458;49.002;8.472;2023-06-24T05:34:32;48.91;40.43;63.80;;
37279;Laerm;7458;49.002;8.472;2023-06-24T05:36:59;48.35;40.03;63.71;;
37279;Laerm;7458;49.002;8.472;2023-06-24T05:39:25;62.11;39.70;87.55;;
37279;Laerm;7458;49.002;8.472;2023-06-24T05:41:51;51.59;38.67;68.96;;
37279;Laerm;7458;49.002;8.472;2023-06-24T05:44:17;54.71;40.80;68.38;;
37279;Laerm;7458;49.002;8.472;2023-06-24T05:46:45;51.51;39.34;68.12;;
37279;Laerm;7458;49.002;8.472;2023-06-24T05:49:10;47.04;38.67;65.34;;
37279;Laerm;7458;49.002;8.472;2023-06-24T05:51:37;51.31;38.52;67.66;;
37279;Laerm;7458;49.002;8.472;2023-06-24T05:54:03;53.67;39.92;72.53;;
37279;Laerm;7458;49.002;8.472;2023-06-24T05:56:29;51.96;38.37;69.29;;
37279;Laerm;7458;49.002;8.472;2023-06-24T05:58:55;51.07;39.58;70.39;;
37279;Laerm;7458;49.002;8.472;2023-06-24T06:01:21;57.21;39.34;73.10;;
37279;Laerm;7458;49.002;8.472;2023-06-24T06:03:47;52.66;39.21;69.07;;
37279;Laerm;7458;49.002;8.472;2023-06-24T06:06:13;52.56;38.32;69.91;;
37279;Laerm;7458;49.002;8.472;2023-06-24T06:08:38;54.31;40.23;68.68;;
37279;Laerm;7458;49.002;8.472;2023-06-24T06:11:04;50.79;39.08;73.84;;
37279;Laerm;7458;49.002;8.472;2023-06-24T06:13:31;47.71;38.67;65.00;;
37279;Laerm;7458;49.002;8.472;2023-06-24T06:15:57;52.87;38.60;69.89;;
37279;Laerm;7458;49.002;8.472;2023-06-24T06:18:23;52.70;38.37;64.68;;
37279;Laerm;7458;49.002;8.472;2023-06-24T06:20:49;57.70;40.43;73.95;;
37279;Laerm;7458;49.002;8.472;2023-06-24T06:23:16;53.73;38.67;66.86;;
37279;Laerm;7458;49.002;8.472;2023-06-24T06:25:42;50.49;37.70;67.40;;
37279;Laerm;7458;49.002;8.472;2023-06-24T06:28:08;50.48;42.76;70.23;;
37279;Laerm;7458;49.002;8.472;2023-06-24T06:30:34;53.43;38.81;67.98;;
37279;Laerm;7458;49.002;8.472;2023-06-24T06:33:00;52.35;38.47;67.80;;
37279;Laerm;7458;49.002;8.472;2023-06-24T06:35:26;55.94;39.46;69.41;;
37279;Laerm;7458;49.002;8.472;2023-06-24T06:37:52;60.25;37.32;81.76;;
37279;Laerm;7458;49.002;8.472;2023-06-24T06:40:20;44.90;36.45;62.58;;
37279;Laerm;7458;49.002;8.472;2023-06-24T06:42:46;57.59;39.46;78.11;;
37279;Laerm;7458;49.002;8.472;2023-06-24T06:45:12;53.38;40.33;65.32;;
37279;Laerm;7458;49.002;8.472;2023-06-24T06:47:37;52.48;38.21;66.30;;
37279;Laerm;7458;49.002;8.472;2023-06-24T06:50:04;52.42;40.08;68.11;;
37279;Laerm;7458;49.002;8.472;2023-06-24T06:52:30;50.91;38.67;65.39;;
37279;Laerm;7458;49.002;8.472;2023-06-24T06:54:56;52.02;40.13;66.98;;
37279;Laerm;7458;49.002;8.472;2023-06-24T06:57:22;65.17;38.95;83.43;;
37279;Laerm;7458;49.002;8.472;2023-06-24T06:59:48;50.29;38.37;67.21;;
37279;Laerm;7458;49.002;8.472;2023-06-24T07:02:19;54.65;39.70;69.55;;
37279;Laerm;7458;49.002;8.472;2023-06-24T07:04:45;51.76;38.81;65.48;;
37279;Laerm;7458;49.002;8.472;2023-06-24T07:07:13;54.58;40.62;66.91;;
37279;Laerm;7458;49.002;8.472;2023-06-24T07:09:39;57.67;40.08;74.50;;
37279;Laerm;7458;49.002;8.472;2023-06-24T07:12:06;53.52;39.08;71.73;;
37279;Laerm;7458;49.002;8.472;2023-06-24T07:14:32;56.06;40.80;77.65;;
37279;Laerm;7458;49.002;8.472;2023-06-24T07:16:58;55.36;39.81;71.34;;
37279;Laerm;7458;49.002;8.472;2023-06-24T07:19:24;51.78;40.03;70.08;;
37279;Laerm;7458;49.002;8.472;2023-06-24T07:21:51;53.72;40.53;70.39;;
37279;Laerm;7458;49.002;8.472;2023-06-24T07:24:17;49.46;39.92;66.07;;
37279;Laerm;7458;49.002;8.472;2023-06-24T07:26:43;51.87;39.08;68.82;;
37279;Laerm;7458;49.002;8.472;2023-06-24T07:29:09;53.40;41.11;69.80;;
37279;Laerm;7458;49.002;8.472;2023-06-24T07:31:35;53.34;40.53;69.15;;
37279;Laerm;7458;49.002;8.472;2023-06-24T07:34:02;52.62;40.18;66.47;;
37279;Laerm;7458;49.002;8.472;2023-06-24T07:36:28;51.97;40.71;65.95;;
37279;Laerm;7458;49.002;8.472;2023-06-24T07:38:53;53.84;40.43;76.04;;
37279;Laerm;7458;49.002;8.472;2023-06-24T07:41:19;54.52;40.89;69.79;;
37279;Laerm;7458;49.002;8.472;2023-06-24T07:43:45;54.72;42.22;67.73;;
37279;Laerm;7458;49.002;8.472;2023-06-24T07:46:10;54.09;40.62;68.09;;
37279;Laerm;7458;49.002;8.472;2023-06-24T07:48:36;54.85;39.81;80.16;;
37279;Laerm;7458;49.002;8.472;2023-06-24T07:51:02;55.62;41.46;70.38;;
37279;Laerm;7458;49.002;8.472;2023-06-24T07:53:28;54.21;40.23;67.61;;
37279;Laerm;7458;49.002;8.472;2023-06-24T07:55:53;57.58;41.48;71.50;;
37279;Laerm;7458;49.002;8.472;2023-06-24T07:58:19;54.85;41.75;69.17;;
37279;Laerm;7458;49.002;8.472;2023-06-24T08:00:51;56.01;41.30;77.16;;
37279;Laerm;7458;49.002;8.472;2023-06-24T08:03:17;54.49;40.71;69.74;;
37279;Laerm;7458;49.002;8.472;2023-06-24T08:05:48;53.61;41.22;74.06;;
37279;Laerm;7458;49.002;8.472;2023-06-24T08:08:17;54.48;42.35;70.13;;
37279;Laerm;7458;49.002;8.472;2023-06-24T08:10:45;57.17;41.19;72.70;;
37279;Laerm;7458;49.002;8.472;2023-06-24T08:13:10;58.33;41.89;78.42;;
37279;Laerm;7458;49.002;8.472;2023-06-24T08:15:36;53.93;42.29;67.41;;
37279;Laerm;7458;49.002;8.472;2023-06-24T08:18:02;54.99;42.29;72.00;;
37279;Laerm;7458;49.002;8.472;2023-06-24T08:20:28;53.01;40.89;67.49;;
37279;Laerm;7458;49.002;8.472;2023-06-24T08:22:56;48.90;39.92;63.23;;
37279;Laerm;7458;49.002;8.472;2023-06-24T08:25:22;54.75;40.63;69.51;;
37279;Laerm;7458;49.002;8.472;2023-06-24T08:27:47;53.87;39.58;74.11;;
37279;Laerm;7458;49.002;8.472;2023-06-24T08:30:14;50.39;40.23;68.44;;
37279;Laerm;7458;49.002;8.472;2023-06-24T08:32:41;55.75;40.53;70.75;;
37279;Laerm;7458;49.002;8.472;2023-06-24T08:35:08;49.43;39.70;72.72;;
37279;Laerm;7458;49.002;8.472;2023-06-24T08:37:36;55.50;38.81;69.97;;
37279;Laerm;7458;49.002;8.472;2023-06-24T08:40:03;53.89;43.24;67.94;;
37279;Laerm;7458;49.002;8.472;2023-06-24T08:42:30;49.20;39.21;64.23;;
37279;Laerm;7458;49.002;8.472;2023-06-24T08:44:56;53.34;40.03;68.70;;
37279;Laerm;7458;49.002;8.472;2023-06-24T08:47:28;55.36;42.03;69.74;;
37279;Laerm;7458;49.002;8.472;2023-06-24T08:50:04;53.72;42.53;65.51;;
37279;Laerm;7458;49.002;8.472;2023-06-24T08:52:36;53.17;40.80;68.99;;
37279;Laerm;7458;49.002;8.472;2023-06-24T08:55:06;53.85;40.98;69.06;;
37279;Laerm;7458;49.002;8.472;2023-06-24T08:57:32;51.22;40.23;72.74;;
37279;Laerm;7458;49.002;8.472;2023-06-24T08:59:57;54.91;40.71;68.98;;
37279;Laerm;7458;49.002;8.472;2023-06-24T09:02:23;53.31;40.98;70.01;;
37279;Laerm;7458;49.002;8.472;2023-06-24T09:04:51;54.98;39.58;70.12;;
37279;Laerm;7458;49.002;8.472;2023-06-24T09:07:26;59.67;41.53;81.75;;
37279;Laerm;7458;49.002;8.472;2023-06-24T09:09:55;55.64;41.06;69.41;;
37279;Laerm;7458;49.002;8.472;2023-06-24T09:12:23;55.29;41.89;68.65;;
37279;Laerm;7458;49.002;8.472;2023-06-24T09:14:50;56.35;41.68;72.89;;
37279;Laerm;7458;49.002;8.472;2023-06-24T09:17:17;60.32;40.62;78.64;;
37279;Laerm;7458;49.002;8.472;2023-06-24T09:19:43;52.55;38.52;75.25;;
37279;Laerm;7458;49.002;8.472;2023-06-24T09:22:10;55.48;39.81;76.11;;
37279;Laerm;7458;49.002;8.472;2023-06-24T09:24:42;54.11;40.13;67.56;;
37279;Laerm;7458;49.002;8.472;2023-06-24T09:27:08;55.66;39.70;74.22;;
37279;Laerm;7458;49.002;8.472;2023-06-24T09:29:35;53.41;39.68;67.13;;
37279;Laerm;7458;49.002;8.472;2023-06-24T09:32:05;53.03;40.23;65.99;;
37279;Laerm;7458;49.002;8.472;2023-06-24T09:34:32;54.29;40.89;72.19;;
37279;Laerm;7458;49.002;8.472;2023-06-24T09:36:59;48.28;40.80;74.81;;
37279;Laerm;7458;49.002;8.472;2023-06-24T09:39:27;56.26;42.35;71.12;;
37279;Laerm;7458;49.002;8.472;2023-06-24T09:42:01;60.86;40.89;83.89;;
37279;Laerm;7458;49.002;8.472;2023-06-24T09:44:28;52.50;39.81;69.92;;
37279;Laerm;7458;49.002;8.472;2023-06-24T09:46:55;52.50;40.71;75.55;;
37279;Laerm;7458;49.002;8.472;2023-06-24T09:49:24;52.76;38.81;70.18;;
37279;Laerm;7458;49.002;8.472;2023-06-24T09:51:56;54.99;40.53;73.45;;
37279;Laerm;7458;49.002;8.472;2023-06-24T09:54:28;70.50;41.22;101.84;;
37279;Laerm;7458;49.002;8.472;2023-06-24T09:56:59;55.54;41.38;73.95;;
37279;Laerm;7458;49.002;8.472;2023-06-24T09:59:26;53.95;41.22;67.61;;
37279;Laerm;7458;49.002;8.472;2023-06-24T10:01:53;52.74;38.67;67.17;;
37279;Laerm;7458;49.002;8.472;2023-06-24T10:04:21;55.08;40.89;68.05;;
37279;Laerm;7458;49.002;8.472;2023-06-24T10:06:49;53.47;41.53;65.10;;
37279;Laerm;7458;49.002;8.472;2023-06-24T10:09:16;51.99;40.33;71.07;;
37279;Laerm;7458;49.002;8.472;2023-06-24T10:11:46;56.36;40.80;74.41;;
37279;Laerm;7458;49.002;8.472;2023-06-24T10:14:14;52.71;39.92;69.07;;
37279;Laerm;7458;49.002;8.472;2023-06-24T10:16:41;56.79;40.53;76.79;;
37279;Laerm;7458;49.002;8.472;2023-06-24T10:19:07;56.21;41.14;74.10;;
37279;Laerm;7458;49.002;8.472;2023-06-24T10:21:51;52.79;40.43;70.41;;
37279;Laerm;7458;49.002;8.472;2023-06-24T10:24:35;54.27;39.46;69.17;;
37279;Laerm;7458;49.002;8.472;2023-06-24T10:29:39;54.14;38.95;72.81;;
37279;Laerm;7458;49.002;8.472;2023-06-24T10:32:09;58.08;41.06;75.91;;
37279;Laerm;7458;49.002;8.472;2023-06-24T10:39:53;59.15;39.46;75.35;;
37279;Laerm;7458;49.002;8.472;2023-06-24T10:47:51;53.84;39.46;68.29;;
37279;Laerm;7458;49.002;8.472;2023-06-24T10:50:22;54.95;40.23;75.02;;
37279;Laerm;7458;49.002;8.472;2023-06-24T10:52:53;57.63;46.89;72.28;;
37279;Laerm;7458;49.002;8.472;2023-06-24T10:55:25;52.64;40.98;70.62;;
37279;Laerm;7458;49.002;8.472;2023-06-24T10:57:52;58.74;40.71;79.36;;
37279;Laerm;7458;49.002;8.472;2023-06-24T11:00:20;59.78;41.89;76.12;;
37279;Laerm;7458;49.002;8.472;2023-06-24T11:02:46;57.60;39.46;76.36;;
37279;Laerm;7458;49.002;8.472;2023-06-24T11:05:12;53.30;39.70;67.31;;
37279;Laerm;7458;49.002;8.472;2023-06-24T11:07:38;57.46;40.98;72.61;;
37279;Laerm;7458;49.002;8.472;2023-06-24T11:10:11;52.34;40.53;68.63;;
37279;Laerm;7458;49.002;8.472;2023-06-24T11:12:40;57.39;41.14;80.15;;
37279;Laerm;7458;49.002;8.472;2023-06-24T11:15:09;58.10;40.71;76.64;;
37279;Laerm;7458;49.002;8.472;2023-06-24T11:17:37;54.72;38.95;73.85;;
37279;Laerm;7458;49.002;8.472;2023-06-24T11:20:12;57.35;41.30;70.02;;
37279;Laerm;7458;49.002;8.472;2023-06-24T11:22:40;59.72;40.89;72.54;;
37279;Laerm;7458;49.002;8.472;2023-06-24T11:25:23;62.90;42.41;82.55;;
37279;Laerm;7458;49.002;8.472;2023-06-24T11:27:52;57.90;38.21;74.52;;
37279;Laerm;7458;49.002;8.472;2023-06-24T11:30:21;54.28;38.95;77.37;;
37279;Laerm;7458;49.002;8.472;2023-06-24T11:32:46;60.24;42.41;72.13;;
37279;Laerm;7458;49.002;8.472;2023-06-24T11:35:14;58.65;41.96;74.65;;
37279;Laerm;7458;49.002;8.472;2023-06-24T11:37:47;66.47;39.81;81.86;;
37279;Laerm;7458;49.002;8.472;2023-06-24T11:40:34;58.08;40.13;73.70;;
37279;Laerm;7458;49.002;8.472;2023-06-24T11:43:08;58.81;40.71;82.68;;
37279;Laerm;7458;49.002;8.472;2023-06-24T11:45:38;53.40;39.46;73.18;;
37279;Laerm;7458;49.002;8.472;2023-06-24T11:48:06;55.27;39.34;69.04;;
37279;Laerm;7458;49.002;8.472;2023-06-24T11:50:57;68.72;40.33;86.21;;
37279;Laerm;7458;49.002;8.472;2023-06-24T11:53:45;63.89;38.95;79.43;;
37279;Laerm;7458;49.002;8.472;2023-06-24T11:56:16;52.49;39.23;69.07;;
37279;Laerm;7458;49.002;8.472;2023-06-24T11:58:50;55.56;37.52;69.52;;
37279;Laerm;7458;49.002;8.472;2023-06-24T12:01:17;54.72;39.46;70.58;;
37279;Laerm;7458;49.002;8.472;2023-06-24T12:04:13;59.26;42.22;72.27;;
37279;Laerm;7458;49.002;8.472;2023-06-24T12:06:51;56.80;40.33;68.78;;
37279;Laerm;7458;49.002;8.472;2023-06-24T12:09:58;60.23;39.34;75.67;;
37279;Laerm;7458;49.002;8.472;2023-06-24T12:16:29;56.83;39.21;73.95;;
37279;Laerm;7458;49.002;8.472;2023-06-24T12:18:55;48.18;37.88;67.43;;
37279;Laerm;7458;49.002;8.472;2023-06-24T12:21:21;57.43;40.62;70.37;;
37279;Laerm;7458;49.002;8.472;2023-06-24T12:23:47;63.06;39.34;78.92;;
37279;Laerm;7458;49.002;8.472;2023-06-24T12:26:13;56.22;39.21;70.92;;
37279;Laerm;7458;49.002;8.472;2023-06-24T12:28:41;57.74;39.34;71.56;;
37279;Laerm;7458;49.002;8.472;2023-06-24T12:46:40;56.14;42.09;74.41;;
37279;Laerm;7458;49.002;8.472;2023-06-24T12:49:06;57.20;42.65;71.10;;
37279;Laerm;7458;49.002;8.472;2023-06-24T12:51:31;54.43;41.75;73.71;;
37279;Laerm;7458;49.002;8.472;2023-06-24T12:53:57;54.88;42.35;67.35;;
37279;Laerm;7458;49.002;8.472;2023-06-24T12:56:23;57.89;42.09;81.07;;
37279;Laerm;7458;49.002;8.472;2023-06-24T12:58:48;53.16;41.06;68.01;;
37279;Laerm;7458;49.002;8.472;2023-06-24T13:01:14;59.11;42.47;76.47;;
37279;Laerm;7458;49.002;8.472;2023-06-24T13:03:40;54.28;41.61;70.81;;
37279;Laerm;7458;49.002;8.472;2023-06-24T13:06:06;52.24;42.09;66.74;;
37279;Laerm;7458;49.002;8.472;2023-06-24T13:08:31;55.47;40.23;71.70;;
37279;Laerm;7458;49.002;8.472;2023-06-24T13:10:57;54.26;39.35;70.52;;
37279;Laerm;7458;49.002;8.472;2023-06-24T13:13:23;53.60;40.33;73.39;;
37279;Laerm;7458;49.002;8.472;2023-06-24T13:15:49;51.32;39.34;68.48;;
37279;Laerm;7458;49.002;8.472;2023-06-24T13:18:14;53.28;39.46;70.80;;
37279;Laerm;7458;49.002;8.472;2023-06-24T13:20:40;56.72;39.92;70.91;;
37279;Laerm;7458;49.002;8.472;2023-06-24T13:23:06;52.96;42.59;69.23;;
37279;Laerm;7458;49.002;8.472;2023-06-24T13:25:32;50.86;40.03;65.66;;
37279;Laerm;7458;49.002;8.472;2023-06-24T13:27:58;56.97;40.53;71.68;;
37279;Laerm;7458;49.002;8.472;2023-06-24T13:30:24;54.99;40.89;71.80;;
37279;Laerm;7458;49.002;8.472;2023-06-24T13:32:50;52.01;40.98;68.08;;
37279;Laerm;7458;49.002;8.472;2023-06-24T13:35:16;55.71;40.03;73.86;;
37279;Laerm;7458;49.002;8.472;2023-06-24T13:37:42;57.50;40.33;73.67;;
37279;Laerm;7458;49.002;8.472;2023-06-24T13:40:10;56.00;39.81;73.00;;
37279;Laerm;7458;49.002;8.472;2023-06-24T13:42:36;56.18;42.03;69.49;;
37279;Laerm;7458;49.002;8.472;2023-06-24T13:45:02;56.51;42.41;71.06;;
37279;Laerm;7458;49.002;8.472;2023-06-24T13:47:28;53.35;41.38;69.99;;
37279;Laerm;7458;49.002;8.472;2023-06-24T13:49:54;51.26;41.06;66.82;;
37279;Laerm;7458;49.002;8.472;2023-06-24T13:52:19;54.40;40.43;70.30;;
37279;Laerm;7458;49.002;8.472;2023-06-24T13:54:46;55.33;40.53;72.18;;
37279;Laerm;7458;49.002;8.472;2023-06-24T13:57:13;50.77;39.46;66.73;;
37279;Laerm;7458;49.002;8.472;2023-06-24T13:59:39;54.94;40.98;69.93;;
37279;Laerm;7458;49.002;8.472;2023-06-24T14:02:05;56.41;41.82;76.00;;
37279;Laerm;7458;49.002;8.472;2023-06-24T14:04:31;57.10;43.77;78.71;;
37279;Laerm;7458;49.002;8.472;2023-06-24T14:06:57;62.47;40.43;82.11;;
37279;Laerm;7458;49.002;8.472;2023-06-24T14:09:23;58.45;41.14;78.76;;
37279;Laerm;7458;49.002;8.472;2023-06-24T14:11:49;50.15;41.30;68.75;;
37279;Laerm;7458;49.002;8.472;2023-06-24T14:14:15;55.73;42.35;71.06;;
37279;Laerm;7458;49.002;8.472;2023-06-24T14:16:40;55.04;41.96;70.03;;
37279;Laerm;7458;49.002;8.472;2023-06-24T14:19:06;54.65;41.61;79.27;;
37279;Laerm;7458;49.002;8.472;2023-06-24T14:21:32;54.00;40.89;71.83;;
37279;Laerm;7458;49.002;8.472;2023-06-24T14:23:58;58.15;40.23;78.15;;
37279;Laerm;7458;49.002;8.472;2023-06-24T14:26:24;55.04;40.43;74.24;;
37279;Laerm;7458;49.002;8.472;2023-06-24T14:28:50;54.76;41.61;71.60;;
37279;Laerm;7458;49.002;8.472;2023-06-24T14:31:16;52.06;41.30;67.07;;
37279;Laerm;7458;49.002;8.472;2023-06-24T14:33:41;56.14;41.75;72.14;;
37279;Laerm;7458;49.002;8.472;2023-06-24T14:36:08;45.69;39.70;57.01;;
37279;Laerm;7458;49.002;8.472;2023-06-24T14:38:33;53.89;41.26;70.89;;
37279;Laerm;7458;49.002;8.472;2023-06-24T14:40:59;50.51;40.98;65.57;;
37279;Laerm;7458;49.002;8.472;2023-06-24T14:43:25;52.82;39.46;67.96;;
37279;Laerm;7458;49.002;8.472;2023-06-24T14:45:51;43.96;37.32;58.08;;